KPAH/PAH METAR and TAF weather

Enter ICAO airport designator
Station Type Date Time Source
KPAH METAR 2021/05/11 00:53 UTC NOAA

KPAH 110053Z 09005KT 10SM FEW090 OVC110 14/06 A3010 RMK AO2 SLP192 T01440056


Station Type Date Time Source
KPAH Decoded METAR 2021/05/11 00:53 UTC NOAA

BARKLEY REGIONAL AIRPORT, KY, United States (KPAH) 37-03N 088-46W 118M
May 10, 2021 - 08:53 PM EDT / 2021.05.11 0053 UTC
Wind: from the E (090 degrees) at 6 MPH (5 KT):0
Visibility: 10 mile(s):0
Sky conditions: overcast
Temperature: 57.9 F (14.4 C)
Dew Point: 42.1 F (5.6 C)
Relative Humidity: 55%
Pressure (altimeter): 30.1 in. Hg (1019 hPa)
ob: KPAH 110053Z 09005KT 10SM FEW090 OVC110 14/06 A3010 RMK AO2 SLP192 T01440056
cycle: 1

Station Type Date Time Source
KPAH TAF 2021/05/10 18:42 UTC NOAA

TAF KPAH 101723Z 1018/1118 03008KT P6SM FEW030 SCT100
FM110000 03006KT P6SM SCT100

Example: see airport list